createdAt,value
2016-11-28T00:00:06.641Z,22.57
2016-11-28T00:00:34.591Z,22.56
2016-11-28T00:01:02.577Z,22.54
2016-11-28T00:01:30.176Z,22.57
2016-11-28T00:01:58.583Z,22.59
2016-11-28T00:02:26.389Z,22.65
2016-11-28T00:02:54.111Z,22.59
2016-11-28T00:03:21.728Z,22.57
2016-11-28T00:03:49.625Z,22.6
2016-11-28T00:04:17.731Z,22.57
2016-11-28T00:04:45.611Z,22.62
2016-11-28T00:05:13.298Z,22.57
2016-11-28T00:05:40.901Z,22.54
2016-11-28T00:06:08.516Z,22.62
2016-11-28T00:06:36.191Z,22.62
2016-11-28T00:07:03.881Z,22.6
2016-11-28T00:08:03.531Z,22.59
2016-11-28T00:08:31.476Z,22.5
2016-11-28T00:08:59.127Z,22.56
2016-11-28T00:09:26.693Z,22.57
2016-11-28T00:09:54.327Z,22.68
2016-11-28T00:10:21.924Z,22.49
2016-11-28T00:10:49.529Z,22.56
2016-11-28T00:11:17.194Z,22.57
2016-11-28T00:11:44.848Z,22.5
2016-11-28T00:12:12.555Z,22.54
2016-11-28T00:12:40.244Z,22.54
2016-11-28T00:13:07.889Z,22.52
2016-11-28T00:13:35.494Z,22.49
2016-11-28T00:14:03.397Z,22.54
2016-11-28T00:14:31.298Z,22.57
2016-11-28T00:14:58.910Z,22.6
2016-11-28T00:15:26.815Z,22.54
2016-11-28T00:15:54.395Z,22.54
2016-11-28T00:16:22.316Z,22.54
2016-11-28T00:16:49.978Z,22.53
2016-11-28T00:17:17.918Z,22.56
2016-11-28T00:17:45.851Z,22.54
2016-11-28T00:18:13.507Z,22.5
2016-11-28T00:18:41.128Z,22.53
2016-11-28T00:19:08.752Z,22.57
2016-11-28T00:19:36.376Z,22.47
2016-11-28T00:20:04.056Z,22.52
2016-11-28T00:20:32.004Z,22.52
2016-11-28T00:20:59.625Z,22.49
2016-11-28T00:21:27.184Z,22.44
2016-11-28T00:21:54.765Z,22.41
2016-11-28T00:22:22.430Z,22.34
2016-11-28T00:22:50.909Z,22.46
2016-11-28T00:23:19.019Z,22.5
2016-11-28T00:23:46.597Z,22.46
2016-11-28T00:24:14.220Z,22.52
2016-11-28T00:24:41.808Z,22.53
2016-11-28T00:25:09.426Z,22.44
2016-11-28T00:25:37.030Z,22.49
2016-11-28T00:26:04.628Z,22.38
2016-11-28T00:26:32.497Z,22.43
2016-11-28T00:27:00.150Z,22.52
2016-11-28T00:27:27.816Z,22.52
2016-11-28T00:28:10.055Z,22.56
2016-11-28T00:28:37.935Z,22.49
2016-11-28T00:29:05.885Z,22.57
2016-11-28T00:29:33.556Z,22.49
2016-11-28T00:30:02.184Z,22.5
2016-11-28T00:30:30.163Z,22.52
2016-11-28T00:30:57.819Z,22.44
2016-11-28T00:31:25.462Z,22.41
2016-11-28T00:31:53.071Z,22.46
2016-11-28T00:32:20.964Z,22.53
2016-11-28T00:32:48.637Z,22.46
2016-11-28T00:33:16.375Z,22.49
2016-11-28T00:33:43.987Z,22.52
2016-11-28T00:34:11.578Z,22.49
2016-11-28T00:34:39.187Z,22.52
2016-11-28T00:35:06.767Z,22.5
2016-11-28T00:35:34.467Z,22.5
2016-11-28T00:36:02.097Z,22.39
2016-11-28T00:36:29.686Z,22.47
2016-11-28T00:36:57.581Z,22.52
2016-11-28T00:37:25.222Z,22.53
2016-11-28T00:37:53.201Z,22.54
2016-11-28T00:38:21.023Z,22.5
2016-11-28T00:38:48.707Z,22.56
2016-11-28T00:39:16.319Z,22.56
2016-11-28T00:39:44.232Z,22.53
2016-11-28T00:40:11.878Z,22.59
2016-11-28T00:40:39.768Z,22.57
2016-11-28T00:41:07.374Z,22.56
2016-11-28T00:41:35.305Z,22.54
2016-11-28T00:42:02.891Z,22.53
2016-11-28T00:42:30.496Z,22.57
2016-11-28T00:42:58.191Z,22.49
2016-11-28T00:43:26.091Z,22.49
2016-11-28T00:43:53.973Z,22.59
2016-11-28T00:44:21.893Z,22.54
2016-11-28T00:44:49.819Z,22.71
2016-11-28T00:45:17.969Z,22.57
2016-11-28T00:45:45.881Z,22.62
2016-11-28T00:46:14.049Z,22.52
2016-11-28T00:46:42.035Z,22.59
2016-11-28T00:47:09.643Z,22.53
2016-11-28T00:47:37.270Z,22.5
2016-11-28T00:48:05.194Z,22.52
2016-11-28T00:48:33.115Z,22.57
2016-11-28T00:49:01.045Z,22.57
2016-11-28T00:49:28.754Z,22.59
2016-11-28T00:49:56.398Z,22.59
2016-11-28T00:50:24.317Z,22.59
2016-11-28T00:50:51.870Z,22.54
2016-11-28T00:51:20.024Z,22.53
2016-11-28T00:51:47.904Z,22.59
2016-11-28T00:52:15.894Z,22.59
2016-11-28T00:52:44.122Z,22.57
2016-11-28T00:53:11.781Z,22.52
2016-11-28T00:53:39.779Z,22.59
2016-11-28T00:54:07.401Z,22.57
2016-11-28T00:54:34.990Z,22.52
2016-11-28T00:55:02.879Z,22.54
2016-11-28T00:55:30.442Z,22.56
2016-11-28T00:55:58.388Z,22.57
2016-11-28T00:56:25.981Z,22.56
2016-11-28T00:56:53.888Z,22.52
2016-11-28T00:57:21.487Z,22.59
2016-11-28T00:57:49.093Z,22.59
2016-11-28T00:58:16.689Z,22.54
2016-11-28T00:58:45.185Z,22.6
2016-11-28T00:59:12.735Z,22.54
2016-11-28T00:59:40.662Z,22.62
2016-11-28T01:00:08.520Z,22.64
2016-11-28T01:00:36.110Z,22.6
2016-11-28T01:01:03.955Z,22.57
2016-11-28T01:01:31.567Z,22.69
2016-11-28T01:01:59.203Z,22.56
2016-11-28T01:02:26.891Z,22.6
2016-11-28T01:02:54.445Z,22.6
2016-11-28T01:03:22.405Z,22.6
2016-11-28T01:03:50.958Z,22.57
2016-11-28T01:04:18.522Z,22.59
2016-11-28T01:04:46.461Z,22.57
2016-11-28T01:05:14.059Z,22.59
2016-11-28T01:05:42.007Z,22.67
2016-11-28T01:06:09.610Z,22.62
2016-11-28T01:06:37.569Z,22.56
2016-11-28T01:07:05.488Z,22.64
2016-11-28T01:07:33.460Z,22.64
2016-11-28T01:08:01.047Z,22.56
2016-11-28T01:08:28.660Z,22.6
2016-11-28T01:08:56.217Z,22.56
2016-11-28T01:09:23.817Z,22.57
2016-11-28T01:09:51.445Z,22.49
2016-11-28T01:10:19.281Z,22.57
2016-11-28T01:10:46.846Z,22.49
2016-11-28T01:11:15.351Z,22.6
2016-11-28T01:11:43.172Z,22.52
2016-11-28T01:12:10.802Z,22.56
2016-11-28T01:12:38.424Z,22.53
2016-11-28T01:13:06.340Z,22.53
2016-11-28T01:13:34.063Z,22.49
2016-11-28T01:14:01.673Z,22.59
2016-11-28T01:14:29.350Z,22.54
2016-11-28T01:14:56.928Z,22.56
2016-11-28T01:15:24.819Z,22.56
2016-11-28T01:15:52.414Z,22.56
2016-11-28T01:16:20.043Z,22.62
2016-11-28T01:16:47.919Z,22.52
2016-11-28T01:17:15.508Z,22.6
2016-11-28T01:17:43.160Z,22.59
2016-11-28T01:18:11.084Z,22.59
2016-11-28T01:18:38.812Z,22.5
2016-11-28T01:19:06.400Z,22.53
2016-11-28T01:19:34.113Z,22.49
2016-11-28T01:20:01.668Z,22.59
2016-11-28T01:20:29.302Z,22.59
2016-11-28T01:20:57.184Z,22.54
2016-11-28T01:21:24.798Z,22.54
2016-11-28T01:21:52.394Z,22.57
2016-11-28T01:22:20.063Z,22.52
2016-11-28T01:22:47.999Z,22.53
2016-11-28T01:23:15.902Z,22.57
2016-11-28T01:23:43.572Z,22.54
2016-11-28T01:24:11.532Z,22.54
2016-11-28T01:24:39.191Z,22.56
2016-11-28T01:25:06.813Z,22.57
2016-11-28T01:25:34.725Z,22.57
2016-11-28T01:26:02.271Z,22.6
2016-11-28T01:26:29.909Z,22.64
2016-11-28T01:26:57.815Z,22.69
2016-11-28T01:27:25.739Z,22.68
2016-11-28T01:27:53.665Z,22.65
2016-11-28T01:28:21.383Z,22.69
2016-11-28T01:28:49.280Z,22.64
2016-11-28T01:29:16.890Z,22.59
2016-11-28T01:29:44.453Z,22.71
2016-11-28T01:30:12.315Z,22.69
2016-11-28T01:30:39.967Z,22.74
2016-11-28T01:31:07.594Z,22.72
2016-11-28T01:31:35.181Z,22.72
2016-11-28T01:32:02.834Z,22.82
2016-11-28T01:32:30.483Z,22.72
2016-11-28T01:32:58.375Z,22.78
2016-11-28T01:33:26.331Z,22.74
2016-11-28T01:33:54.007Z,22.77
2016-11-28T01:34:21.615Z,22.8
2016-11-28T01:34:49.182Z,22.72
2016-11-28T01:35:17.935Z,22.8
2016-11-28T01:35:45.582Z,22.82
2016-11-28T01:36:13.195Z,22.84
2016-11-28T01:36:41.105Z,22.83
2016-11-28T01:37:08.969Z,22.89
2016-11-28T01:37:36.597Z,22.82
2016-11-28T01:38:04.205Z,22.82
2016-11-28T01:38:31.886Z,22.87
2016-11-28T01:38:59.661Z,22.87
2016-11-28T01:39:27.557Z,22.87
2016-11-28T01:39:55.223Z,22.94
2016-11-28T01:40:22.910Z,22.96
2016-11-28T01:40:50.453Z,23.02
2016-11-28T01:41:18.415Z,23.04
2016-11-28T01:41:46.075Z,23.09
2016-11-28T01:42:13.731Z,23.11
2016-11-28T01:42:41.347Z,23.04
2016-11-28T01:43:08.901Z,23.05
2016-11-28T01:43:36.883Z,23.01
2016-11-28T01:44:04.762Z,22.99
2016-11-28T01:44:32.820Z,23.04
2016-11-28T01:45:00.450Z,23.01
2016-11-28T01:45:28.111Z,23.07
2016-11-28T01:45:56.032Z,23.08
2016-11-28T01:46:23.673Z,23.04
2016-11-28T01:46:51.233Z,23.02
2016-11-28T01:47:19.209Z,23.05
2016-11-28T01:47:46.779Z,23.12
2016-11-28T01:48:14.401Z,23.12
2016-11-28T01:48:42.337Z,23.07
2016-11-28T01:49:10.240Z,23.05
2016-11-28T01:49:38.149Z,23.04
2016-11-28T01:50:05.657Z,23.04
2016-11-28T01:50:33.559Z,22.99
2016-11-28T01:51:01.494Z,22.97
2016-11-28T01:51:29.076Z,22.97
2016-11-28T01:51:56.697Z,23.02
2016-11-28T01:52:24.289Z,23.02
2016-11-28T01:52:51.898Z,23.01
2016-11-28T01:53:19.747Z,22.97
2016-11-28T01:53:47.363Z,22.99
2016-11-28T01:54:15.207Z,23.04
2016-11-28T01:54:43.062Z,22.94
2016-11-28T01:55:10.696Z,22.97
2016-11-28T01:55:38.311Z,22.96
2016-11-28T01:56:05.947Z,22.99
2016-11-28T01:56:33.720Z,23.15
2016-11-28T01:57:01.387Z,23.04
2016-11-28T01:57:29.039Z,23.19
2016-11-28T01:57:56.680Z,23.05
2016-11-28T01:58:24.250Z,23.02
2016-11-28T01:58:51.865Z,23.07
2016-11-28T01:59:19.701Z,23.01
2016-11-28T01:59:47.294Z,23.08
2016-11-28T02:00:14.990Z,23.09
2016-11-28T02:00:42.862Z,23.02
2016-11-28T02:01:10.468Z,23.02
2016-11-28T02:01:38.153Z,23.07
2016-11-28T02:02:05.797Z,23.09
2016-11-28T02:02:33.461Z,23.14
2016-11-28T02:03:01.090Z,23.08
2016-11-28T02:03:29.305Z,23.11
2016-11-28T02:03:56.951Z,23.12
2016-11-28T02:04:24.741Z,23.12
2016-11-28T02:04:52.592Z,23.07
2016-11-28T02:05:20.317Z,23.11
2016-11-28T02:05:48.208Z,23.12
2016-11-28T02:06:15.794Z,23.09
2016-11-28T02:06:43.417Z,23.12
2016-11-28T02:07:11.617Z,23.09
2016-11-28T02:07:39.242Z,23.01
2016-11-28T02:08:07.147Z,23.05
2016-11-28T02:08:35.127Z,23.07
2016-11-28T02:09:02.720Z,23.14
2016-11-28T02:09:30.352Z,23.02
2016-11-28T02:09:58.069Z,23.02
2016-11-28T02:10:25.671Z,22.99
2016-11-28T02:10:53.251Z,22.99
2016-11-28T02:11:20.896Z,23.01
2016-11-28T02:11:48.530Z,23.07
2016-11-28T02:12:16.176Z,23.12
2016-11-28T02:12:44.377Z,23.04
2016-11-28T02:13:12.295Z,23.01
2016-11-28T02:13:39.917Z,23.05
2016-11-28T02:14:07.952Z,23.11
2016-11-28T02:14:35.551Z,23.14
2016-11-28T02:15:03.495Z,23.02
2016-11-28T02:15:31.128Z,23.04
2016-11-28T02:15:58.824Z,22.99
2016-11-28T02:16:26.438Z,23.07
2016-11-28T02:16:54.011Z,23.12
2016-11-28T02:17:21.673Z,22.96
2016-11-28T02:17:49.275Z,22.99
2016-11-28T02:18:17.234Z,23.14
2016-11-28T02:18:45.125Z,23.08
2016-11-28T02:19:12.666Z,23.14
2016-11-28T02:19:40.524Z,23.05
2016-11-28T02:20:08.448Z,23.04
2016-11-28T02:20:36.334Z,23.09
2016-11-28T02:21:04.282Z,23.09
2016-11-28T02:21:31.886Z,22.99
2016-11-28T02:21:59.772Z,23.09
2016-11-28T02:22:27.322Z,23.12
2016-11-28T02:22:55.201Z,23.14
2016-11-28T02:23:23.095Z,22.99
2016-11-28T02:23:51.111Z,23.04
2016-11-28T02:24:18.842Z,23.01
2016-11-28T02:24:46.748Z,23.11
2016-11-28T02:25:14.356Z,23.12
2016-11-28T02:25:41.959Z,23.08
2016-11-28T02:26:09.507Z,23.12
2016-11-28T02:26:37.164Z,23.14
2016-11-28T02:27:04.830Z,23.05
2016-11-28T02:27:32.758Z,23.02
2016-11-28T02:28:00.472Z,23.01
2016-11-28T02:28:28.219Z,23.2
2016-11-28T02:28:55.846Z,23.02
2016-11-28T02:29:23.757Z,23.08
2016-11-28T02:30:06.361Z,23.07
2016-11-28T02:30:34.016Z,23.09
2016-11-28T02:31:01.696Z,23.04
2016-11-28T02:31:29.340Z,23.07
2016-11-28T02:31:57.294Z,22.99
2016-11-28T02:32:39.515Z,22.99
2016-11-28T02:33:07.371Z,23.11
2016-11-28T02:33:49.961Z,23.14
2016-11-28T02:34:17.855Z,23.01
2016-11-28T02:34:45.425Z,23.07
2016-11-28T02:35:13.056Z,23.14
2016-11-28T02:35:40.653Z,23.05
2016-11-28T02:36:08.584Z,23.11
2016-11-28T02:36:36.275Z,23.09
2016-11-28T02:37:04.125Z,23.07
2016-11-28T02:37:32.188Z,23.11
2016-11-28T02:37:59.863Z,23.01
2016-11-28T02:38:27.800Z,23.12
2016-11-28T02:38:55.465Z,23.14
2016-11-28T02:39:23.360Z,23.04
2016-11-28T02:39:50.946Z,22.99
2016-11-28T02:40:18.581Z,23.04
2016-11-28T02:40:46.149Z,23.08
2016-11-28T02:41:14.112Z,23.12
2016-11-28T02:41:41.771Z,23.01
2016-11-28T02:42:09.623Z,23.01
2016-11-28T02:42:37.240Z,23.09
2016-11-28T02:43:05.480Z,23.12
2016-11-28T02:43:33.171Z,23.15
2016-11-28T02:44:01.068Z,23.09
2016-11-28T02:44:29.381Z,23.17
2016-11-28T02:44:57.025Z,23.19
2016-11-28T02:45:24.653Z,23.11
2016-11-28T02:45:52.548Z,23.12
2016-11-28T02:46:20.499Z,23.19
2016-11-28T02:46:48.150Z,23.09
2016-11-28T02:47:16.080Z,23.12
2016-11-28T02:47:43.710Z,23.02
2016-11-28T02:48:11.570Z,23.15
2016-11-28T02:48:39.208Z,23.09
2016-11-28T02:49:07.145Z,23.05
2016-11-28T02:49:35.005Z,23.08
2016-11-28T02:50:02.546Z,23.08
2016-11-28T02:50:30.983Z,23.02
2016-11-28T02:50:58.576Z,23.14
2016-11-28T02:51:26.252Z,23.14
2016-11-28T02:51:53.891Z,23.14
2016-11-28T02:52:21.498Z,23.11
2016-11-28T02:52:49.483Z,23.19
2016-11-28T02:53:17.117Z,23.26
2016-11-28T02:53:44.977Z,23.2
2016-11-28T02:54:12.867Z,23.15
2016-11-28T02:54:41.040Z,23.09
2016-11-28T02:55:08.691Z,23.22
2016-11-28T02:55:36.530Z,23.15
2016-11-28T02:56:04.451Z,23.19
2016-11-28T02:56:32.093Z,23.2
2016-11-28T02:57:00.041Z,23.19
2016-11-28T02:57:27.681Z,23.15
2016-11-28T02:57:55.290Z,23.12
2016-11-28T02:58:22.912Z,23.2
2016-11-28T02:58:50.503Z,23.23
2016-11-28T02:59:18.137Z,23.15
2016-11-28T02:59:46.137Z,23.12
2016-11-28T03:00:13.740Z,23.15
2016-11-28T03:00:41.574Z,23.2
2016-11-28T03:01:09.529Z,23.12
2016-11-28T03:01:37.250Z,23.15
2016-11-28T03:02:04.897Z,23.09
2016-11-28T03:02:32.616Z,23.2
2016-11-28T03:03:00.550Z,23.24
2016-11-28T03:03:28.219Z,23.14
2016-11-28T03:03:56.118Z,23.15
2016-11-28T03:04:23.725Z,23.2
2016-11-28T03:04:51.924Z,23.11
2016-11-28T03:05:19.569Z,23.14
2016-11-28T03:05:47.502Z,23.17
2016-11-28T03:06:15.406Z,23.15
2016-11-28T03:06:44.032Z,23.23
2016-11-28T03:07:11.679Z,23.22
2016-11-28T03:07:39.341Z,23.17
2016-11-28T03:08:06.958Z,23.2
2016-11-28T03:08:34.958Z,23.2
2016-11-28T03:09:02.847Z,23.08
2016-11-28T03:09:30.716Z,23.17
2016-11-28T03:09:58.354Z,23.19
2016-11-28T03:10:25.995Z,23.15
2016-11-28T03:10:53.909Z,23.15
2016-11-28T03:11:22.217Z,23.15
2016-11-28T03:11:49.909Z,23.14
2016-11-28T03:12:17.543Z,23.19
2016-11-28T03:12:45.380Z,23.15
2016-11-28T03:13:12.976Z,23.19
2016-11-28T03:13:40.583Z,23.14
2016-11-28T03:14:08.802Z,23.19
2016-11-28T03:14:36.474Z,23.15
2016-11-28T03:15:04.397Z,23.19
2016-11-28T03:15:32.018Z,23.12
2016-11-28T03:15:59.679Z,23.15
2016-11-28T03:16:27.331Z,23.15
2016-11-28T03:16:54.897Z,23.19
2016-11-28T03:17:22.491Z,23.19
2016-11-28T03:17:50.091Z,23.11
2016-11-28T03:18:18.059Z,23.15
2016-11-28T03:18:45.652Z,23.17
2016-11-28T03:19:13.594Z,23.23
2016-11-28T03:19:41.514Z,23.26
2016-11-28T03:20:09.863Z,23.26
2016-11-28T03:20:37.463Z,23.12
2016-11-28T03:21:05.062Z,23.17
2016-11-28T03:21:32.913Z,23.15
2016-11-28T03:22:00.511Z,23.15
2016-11-28T03:22:28.144Z,23.02
2016-11-28T03:22:55.707Z,23.09
2016-11-28T03:23:23.368Z,23.11
2016-11-28T03:23:50.908Z,23.11
2016-11-28T03:24:18.485Z,23.01
2016-11-28T03:24:46.079Z,23.05
2016-11-28T03:25:14.279Z,23.04
2016-11-28T03:25:41.923Z,23.05
2016-11-28T03:26:09.867Z,23.05
2016-11-28T03:26:37.810Z,23.08
2016-11-28T03:27:05.440Z,23.07
2016-11-28T03:27:33.009Z,23.08
2016-11-28T03:28:00.915Z,23.05
2016-11-28T03:28:28.851Z,23.02
2016-11-28T03:28:56.447Z,23.15
2016-11-28T03:29:24.270Z,23.01
2016-11-28T03:29:52.193Z,22.96
2016-11-28T03:30:19.762Z,23.07
2016-11-28T03:30:47.937Z,23.07
2016-11-28T03:31:15.586Z,23.11
2016-11-28T03:31:43.245Z,23.11
2016-11-28T03:32:11.249Z,23.05
2016-11-28T03:32:38.859Z,23.11
2016-11-28T03:33:06.781Z,23.08
2016-11-28T03:33:34.387Z,23.01
2016-11-28T03:34:02.256Z,23.01
2016-11-28T03:34:30.248Z,23.08
2016-11-28T03:34:58.582Z,23.01
2016-11-28T03:35:26.410Z,23.05
2016-11-28T03:36:08.952Z,23.11
2016-11-28T03:36:36.577Z,23.07
2016-11-28T03:37:04.813Z,23.09
2016-11-28T03:37:32.381Z,23.01
2016-11-28T03:38:00.413Z,23.04
2016-11-28T03:38:28.063Z,22.99
2016-11-28T03:38:55.952Z,23.08
2016-11-28T03:39:23.636Z,22.94
2016-11-28T03:39:51.263Z,23.01
2016-11-28T03:40:18.944Z,22.96
2016-11-28T03:40:46.545Z,22.94
2016-11-28T03:41:14.185Z,23.05
2016-11-28T03:41:41.747Z,23.02
2016-11-28T03:42:09.373Z,22.97
2016-11-28T03:42:36.904Z,22.99
2016-11-28T03:43:04.570Z,22.96
2016-11-28T03:43:32.484Z,22.9
2016-11-28T03:44:00.394Z,22.97
2016-11-28T03:44:28.338Z,22.99
2016-11-28T03:44:56.031Z,22.96
2016-11-28T03:45:23.756Z,22.93
2016-11-28T03:45:51.355Z,22.92
2016-11-28T03:46:19.243Z,22.86
2016-11-28T03:46:46.884Z,22.9
2016-11-28T03:47:14.527Z,22.9
2016-11-28T03:47:42.405Z,22.84
2016-11-28T03:48:10.268Z,22.87
2016-11-28T03:48:37.901Z,22.9
2016-11-28T03:49:05.600Z,22.92
2016-11-28T03:49:33.902Z,22.86
2016-11-28T03:50:01.812Z,22.86
2016-11-28T03:50:29.884Z,22.83
2016-11-28T03:50:57.843Z,22.8
2016-11-28T03:51:25.532Z,22.87
2016-11-28T03:51:53.131Z,22.83
2016-11-28T03:52:21.090Z,22.83
2016-11-28T03:52:49.023Z,22.83
2016-11-28T03:53:16.648Z,22.8
2016-11-28T03:53:44.267Z,22.77
2016-11-28T03:54:11.928Z,22.74
2016-11-28T03:54:39.654Z,22.8
2016-11-28T03:55:07.518Z,22.75
2016-11-28T03:55:35.616Z,22.82
2016-11-28T03:56:03.826Z,22.83
2016-11-28T03:56:31.752Z,22.83
2016-11-28T03:56:59.731Z,22.75
2016-11-28T03:57:27.611Z,22.82
2016-11-28T03:57:55.216Z,22.77
2016-11-28T03:58:23.420Z,22.68
2016-11-28T03:58:51.355Z,22.67
2016-11-28T03:59:19.271Z,22.68
2016-11-28T03:59:47.121Z,22.77
2016-11-28T04:00:14.733Z,22.78
2016-11-28T04:00:42.335Z,22.74
2016-11-28T04:01:09.950Z,22.68
2016-11-28T04:01:38.473Z,22.62
2016-11-28T04:02:06.385Z,22.62
2016-11-28T04:02:34.326Z,22.68
2016-11-28T04:03:01.967Z,22.72
2016-11-28T04:03:44.982Z,22.69
2016-11-28T04:04:12.662Z,22.72
2016-11-28T04:04:40.256Z,22.71
2016-11-28T04:05:22.834Z,22.77
2016-11-28T04:05:50.736Z,22.65
2016-11-28T04:06:18.648Z,22.77
2016-11-28T04:06:46.352Z,22.72
2016-11-28T04:07:28.656Z,22.71
2016-11-28T04:07:56.879Z,22.67
2016-11-28T04:08:24.474Z,22.68
2016-11-28T04:08:52.076Z,22.72
2016-11-28T04:09:20.278Z,22.71
2016-11-28T04:09:47.844Z,22.71
2016-11-28T04:10:15.757Z,22.77
2016-11-28T04:10:43.709Z,22.72
2016-11-28T04:11:11.343Z,22.75
2016-11-28T04:11:39.262Z,22.8
2016-11-28T04:12:07.743Z,22.72
2016-11-28T04:12:35.369Z,22.72
2016-11-28T04:13:02.975Z,22.82
2016-11-28T04:13:30.619Z,22.67
2016-11-28T04:13:58.249Z,22.72
2016-11-28T04:14:25.769Z,22.78
2016-11-28T04:14:53.831Z,22.72
2016-11-28T04:15:21.753Z,22.57
2016-11-28T04:15:49.711Z,22.77
2016-11-28T04:16:17.334Z,22.69
2016-11-28T04:16:45.216Z,22.62
2016-11-28T04:17:13.103Z,22.72
2016-11-28T04:17:40.771Z,22.67
2016-11-28T04:18:08.701Z,22.59
2016-11-28T04:18:36.312Z,22.64
2016-11-28T04:19:04.530Z,22.74
2016-11-28T04:19:32.414Z,22.69
2016-11-28T04:20:00.325Z,22.67
2016-11-28T04:20:28.172Z,22.67
2016-11-28T04:20:55.792Z,22.68
2016-11-28T04:21:23.770Z,22.67
2016-11-28T04:21:51.362Z,22.65
2016-11-28T04:22:19.593Z,22.69
2016-11-28T04:22:47.498Z,22.71
2016-11-28T04:23:15.174Z,22.72
2016-11-28T04:23:42.816Z,22.77
2016-11-28T04:24:10.429Z,22.6
2016-11-28T04:24:38.038Z,22.64
2016-11-28T04:25:05.690Z,22.65
2016-11-28T04:25:33.857Z,22.64
2016-11-28T04:26:01.470Z,22.82
2016-11-28T04:26:29.343Z,22.69
2016-11-28T04:26:57.488Z,22.78
2016-11-28T04:27:25.953Z,22.83
2016-11-28T04:27:53.544Z,22.77
2016-11-28T04:28:21.453Z,22.8
2016-11-28T04:28:49.060Z,22.67
2016-11-28T04:29:16.920Z,22.78
2016-11-28T04:29:44.827Z,22.72
2016-11-28T04:30:12.760Z,22.84
2016-11-28T04:30:40.448Z,22.8
2016-11-28T04:31:08.453Z,22.75
2016-11-28T04:31:36.139Z,22.78
2016-11-28T04:32:04.018Z,22.77
2016-11-28T04:32:31.663Z,22.72
2016-11-28T04:32:59.599Z,22.78
2016-11-28T04:33:27.261Z,22.84
2016-11-28T04:33:54.896Z,22.84
2016-11-28T04:34:23.079Z,22.84
2016-11-28T04:34:50.684Z,22.83
2016-11-28T04:35:18.939Z,22.82
2016-11-28T04:35:47.144Z,22.82
2016-11-28T04:36:14.717Z,22.89
2016-11-28T04:36:42.377Z,22.83
2016-11-28T04:37:10.339Z,22.77
2016-11-28T04:37:38.311Z,22.8
2016-11-28T04:38:06.236Z,22.86
2016-11-28T04:38:34.091Z,22.83
2016-11-28T04:39:01.681Z,22.83
2016-11-28T04:39:29.556Z,22.83
2016-11-28T04:39:57.461Z,22.82
2016-11-28T04:40:25.368Z,22.78
2016-11-28T04:40:52.961Z,22.74
2016-11-28T04:41:21.494Z,22.77
2016-11-28T04:41:49.136Z,22.75
2016-11-28T04:42:17.303Z,22.8
2016-11-28T04:42:45.140Z,22.82
2016-11-28T04:43:12.996Z,22.78
2016-11-28T04:43:40.652Z,22.83
2016-11-28T04:44:08.604Z,22.84
2016-11-28T04:44:36.220Z,22.77
2016-11-28T04:45:04.109Z,22.83
2016-11-28T04:45:32.285Z,22.83
2016-11-28T04:46:00.354Z,22.8
2016-11-28T04:46:28.275Z,22.8
2016-11-28T04:46:56.209Z,22.74
2016-11-28T04:47:24.069Z,22.87
2016-11-28T04:47:51.698Z,22.78
2016-11-28T04:48:20.198Z,22.84
2016-11-28T04:48:47.806Z,22.8
2016-11-28T04:49:15.384Z,22.78
2016-11-28T04:49:43.287Z,22.75
2016-11-28T04:50:11.169Z,22.8
2016-11-28T04:50:39.595Z,22.75
2016-11-28T04:51:07.200Z,22.72
2016-11-28T04:51:34.818Z,22.82
2016-11-28T04:52:03.028Z,22.78
2016-11-28T04:52:30.994Z,22.68
2016-11-28T04:52:58.837Z,22.68
2016-11-28T04:53:26.483Z,22.68
2016-11-28T04:53:54.291Z,22.57
2016-11-28T04:54:21.918Z,22.78
2016-11-28T04:54:49.560Z,22.68
2016-11-28T04:55:17.437Z,22.68
2016-11-28T04:55:45.841Z,22.6
2016-11-28T04:56:13.450Z,22.65
2016-11-28T04:56:41.049Z,22.65
2016-11-28T04:57:08.687Z,22.64
2016-11-28T04:57:36.309Z,22.67
2016-11-28T04:58:04.212Z,22.69
2016-11-28T04:58:32.121Z,22.64
2016-11-28T04:58:59.945Z,22.67
2016-11-28T04:59:27.632Z,22.69
2016-11-28T04:59:55.506Z,22.65
2016-11-28T05:00:23.368Z,22.68
2016-11-28T05:00:50.941Z,22.64
2016-11-28T05:01:18.621Z,22.78
2016-11-28T05:01:46.222Z,22.77
2016-11-28T05:02:13.853Z,22.6
2016-11-28T05:02:41.512Z,22.65
2016-11-28T05:03:09.432Z,22.65
2016-11-28T05:03:37.301Z,22.6
2016-11-28T05:04:04.941Z,22.67
2016-11-28T05:04:32.609Z,22.64
2016-11-28T05:05:00.211Z,22.64
2016-11-28T05:05:27.761Z,22.64
2016-11-28T05:05:55.510Z,22.65
2016-11-28T05:06:23.470Z,22.71
2016-11-28T05:06:51.325Z,22.71
2016-11-28T05:07:19.256Z,22.68
2016-11-28T05:07:46.905Z,22.64
2016-11-28T05:08:14.481Z,22.68
2016-11-28T05:08:42.095Z,22.72
2016-11-28T05:09:09.766Z,22.64
2016-11-28T05:09:37.684Z,22.57
2016-11-28T05:10:05.872Z,22.69
2016-11-28T05:10:33.525Z,22.57
2016-11-28T05:11:01.169Z,22.64
2016-11-28T05:11:29.340Z,22.71
2016-11-28T05:11:57.001Z,22.77
2016-11-28T05:12:24.628Z,22.71
2016-11-28T05:12:52.195Z,22.74
2016-11-28T05:13:19.764Z,22.71
2016-11-28T05:13:47.415Z,22.67
2016-11-28T05:14:15.052Z,22.71
2016-11-28T05:14:42.690Z,22.77
2016-11-28T05:15:10.636Z,22.72
2016-11-28T05:15:38.740Z,22.72
2016-11-28T05:16:06.542Z,22.68
2016-11-28T05:16:34.224Z,22.72
2016-11-28T05:17:01.842Z,22.67
2016-11-28T05:17:29.380Z,22.77
2016-11-28T05:17:56.991Z,22.69
2016-11-28T05:18:24.826Z,22.68
2016-11-28T05:18:52.500Z,22.65
2016-11-28T05:19:20.177Z,22.72
2016-11-28T05:19:48.061Z,22.75
2016-11-28T05:20:15.669Z,22.68
2016-11-28T05:20:43.839Z,22.6
2016-11-28T05:21:11.724Z,22.68
2016-11-28T05:21:39.839Z,22.65
2016-11-28T05:22:07.993Z,22.64
2016-11-28T05:22:35.608Z,22.65
2016-11-28T05:23:03.551Z,22.65
2016-11-28T05:23:31.453Z,22.62
2016-11-28T05:23:59.068Z,22.64
2016-11-28T05:24:27.280Z,22.64
2016-11-28T05:24:55.088Z,22.69
2016-11-28T05:25:22.679Z,22.69
2016-11-28T05:25:50.684Z,22.65
2016-11-28T05:26:18.262Z,22.67
2016-11-28T05:26:45.923Z,22.69
2016-11-28T05:27:13.509Z,22.74
2016-11-28T05:27:41.473Z,22.71
2016-11-28T05:28:09.423Z,22.69
2016-11-28T05:28:37.103Z,22.68
2016-11-28T05:29:04.744Z,22.69
2016-11-28T05:29:32.670Z,22.69
2016-11-28T05:30:00.627Z,22.67
2016-11-28T05:30:28.546Z,22.65
2016-11-28T05:30:56.471Z,22.68
2016-11-28T05:31:24.347Z,22.69
2016-11-28T05:31:51.990Z,22.65
2016-11-28T05:32:19.632Z,22.65
2016-11-28T05:32:47.508Z,22.67
2016-11-28T05:33:15.150Z,22.62
2016-11-28T05:33:43.179Z,22.68
2016-11-28T05:34:11.087Z,22.72
2016-11-28T05:34:38.715Z,22.65
2016-11-28T05:35:06.285Z,22.69
2016-11-28T05:35:34.200Z,22.69
2016-11-28T05:36:02.045Z,22.65
2016-11-28T05:36:30.456Z,22.6
2016-11-28T05:36:58.156Z,22.62
2016-11-28T05:37:25.784Z,22.65
2016-11-28T05:37:53.696Z,22.6
2016-11-28T05:38:21.620Z,22.53
2016-11-28T05:38:49.506Z,22.68
2016-11-28T05:39:17.109Z,22.59
2016-11-28T05:39:45.008Z,22.56
2016-11-28T05:40:12.650Z,22.53
2016-11-28T05:40:40.549Z,22.62
2016-11-28T05:41:08.543Z,22.59
2016-11-28T05:41:36.401Z,22.53
2016-11-28T05:42:04.882Z,22.59
2016-11-28T05:42:32.507Z,22.6
2016-11-28T05:43:00.428Z,22.6
2016-11-28T05:43:28.369Z,22.68
2016-11-28T05:43:56.215Z,22.59
2016-11-28T05:44:23.829Z,22.52
2016-11-28T05:44:51.399Z,22.6
2016-11-28T05:45:19.028Z,22.49
2016-11-28T05:45:46.868Z,22.53
2016-11-28T05:46:14.824Z,22.57
2016-11-28T05:46:42.808Z,22.71
2016-11-28T05:47:10.439Z,22.57
2016-11-28T05:47:38.345Z,22.64
2016-11-28T05:48:05.953Z,22.6
2016-11-28T05:48:33.584Z,22.6
2016-11-28T05:49:01.505Z,22.53
2016-11-28T05:49:29.123Z,22.57
2016-11-28T05:49:57.012Z,22.56
2016-11-28T05:50:24.921Z,22.53
2016-11-28T05:50:52.729Z,22.54
2016-11-28T05:51:20.973Z,22.53
2016-11-28T05:51:48.674Z,22.54
2016-11-28T05:52:16.352Z,22.54
2016-11-28T05:52:44.259Z,22.56
2016-11-28T05:53:11.873Z,22.53
2016-11-28T05:53:40.027Z,22.52
2016-11-28T05:54:08.277Z,22.5
2016-11-28T05:54:36.515Z,22.56
2016-11-28T05:55:04.106Z,22.54
2016-11-28T05:55:31.977Z,22.56
2016-11-28T05:56:00.189Z,22.59
2016-11-28T05:56:28.038Z,22.53
2016-11-28T05:56:55.657Z,22.52
2016-11-28T05:57:23.616Z,22.53
2016-11-28T05:57:51.503Z,22.56
2016-11-28T05:58:19.138Z,22.52
2016-11-28T05:58:47.031Z,22.54
2016-11-28T05:59:14.679Z,22.44
2016-11-28T05:59:42.334Z,22.57
2016-11-28T06:00:10.266Z,22.47
2016-11-28T06:00:37.894Z,22.5
2016-11-28T06:01:05.985Z,22.49